Time;durP1;ratioP1;P1;durP2;ratioP2;P2;SDS_P1;SDS_P2;PMS_P1;PMS_P2;Temp;Humidity;BMP_temperature;BMP_pressure;BME280_temperature;BME280_humidity;BME280_pressure;Samples;Min_cycle;Max_cycle;Signal;HPM_P1;HPM_P2
2023/06/24 00:00:40;;;;;;;13.93;9.82;;;16.70;99.90;;;;;;5071745;28;20044;-82
2023/06/24 00:03:07;;;;;;;11.77;8.90;;;16.60;99.90;;;;;;5054994;28;20130;-83
2023/06/24 00:05:33;;;;;;;11.23;9.02;;;16.60;99.90;;;;;;5054172;28;20273;-83
2023/06/24 00:08:02;;;;;;;12.68;9.32;;;16.50;99.90;;;;;;5037721;28;20050;-82
2023/06/24 00:10:29;;;;;;;10.98;8.70;;;16.50;99.90;;;;;;5071122;28;20048;-83
2023/06/24 00:12:55;;;;;;;12.73;9.15;;;16.50;99.90;;;;;;5070788;28;20052;-83
2023/06/24 00:15:21;;;;;;;11.25;8.48;;;16.40;99.90;;;;;;5054308;28;20040;-83
2023/06/24 00:17:46;;;;;;;11.85;9.07;;;16.40;99.90;;;;;;5054188;28;20063;-83
2023/06/24 00:20:14;;;;;;;13.63;9.10;;;16.30;99.90;;;;;;5037783;28;20037;-83
2023/06/24 00:22:43;;;;;;;12.32;9.27;;;16.20;99.90;;;;;;5038054;28;20098;-83
2023/06/24 00:25:10;;;;;;;12.45;9.15;;;16.10;99.90;;;;;;5054478;28;20045;-83
2023/06/24 00:27:35;;;;;;;11.23;8.82;;;16.10;99.90;;;;;;5054390;28;20048;-83
2023/06/24 00:30:01;;;;;;;11.05;8.90;;;16.00;99.90;;;;;;5071090;28;20036;-82
2023/06/24 00:32:26;;;;;;;12.23;9.43;;;15.90;99.90;;;;;;5071084;28;20045;-82
2023/06/24 00:34:52;;;;;;;9.85;7.88;;;15.90;99.90;;;;;;5037572;28;20448;-83
2023/06/24 00:37:18;;;;;;;11.85;8.85;;;16.00;99.90;;;;;;5070857;28;20291;-83
2023/06/24 00:39:44;;;;;;;12.93;8.68;;;15.90;99.90;;;;;;5054386;28;20050;-83
2023/06/24 00:42:09;;;;;;;12.55;9.38;;;15.90;99.90;;;;;;5054198;28;20448;-83
2023/06/24 00:44:37;;;;;;;12.00;9.43;;;15.90;99.90;;;;;;5037459;28;20097;-83
2023/06/24 00:47:03;;;;;;;10.68;8.77;;;15.80;99.90;;;;;;5037754;28;20040;-83
2023/06/24 00:49:29;;;;;;;11.30;8.80;;;15.80;99.90;;;;;;5053990;28;20047;-82
2023/06/24 00:51:55;;;;;;;12.77;9.40;;;15.70;99.90;;;;;;5037324;28;20075;-83
2023/06/24 00:54:21;;;;;;;10.10;8.95;;;15.60;99.90;;;;;;5037601;28;20465;-83
2023/06/24 00:56:47;;;;;;;13.00;8.82;;;15.60;99.90;;;;;;5054418;28;20071;-82
2023/06/24 00:59:15;;;;;;;12.13;8.70;;;15.70;99.90;;;;;;5037692;28;20429;-83
2023/06/24 01:01:41;;;;;;;15.82;10.15;;;15.70;99.90;;;;;;5070670;28;20044;-82
2023/06/24 01:04:07;;;;;;;12.38;9.25;;;15.70;99.90;;;;;;5053702;28;20051;-83
2023/06/24 01:06:36;;;;;;;11.27;8.43;;;15.70;99.90;;;;;;5085073;28;20032;-83
2023/06/24 01:09:02;;;;;;;12.30;8.98;;;15.70;99.90;;;;;;5083421;28;20117;-82
2023/06/24 01:11:29;;;;;;;12.88;8.55;;;15.60;99.90;;;;;;5077286;28;20082;-83
2023/06/24 01:13:55;;;;;;;12.70;8.93;;;15.60;99.90;;;;;;5053314;28;20040;-82
2023/06/24 01:16:45;;;;;;;10.75;8.68;;;15.60;99.90;;;;;;5053343;28;20048;-82
2023/06/24 01:19:38;;;;;;;12.88;8.93;;;15.60;99.90;;;;;;5069805;28;20052;-82
2023/06/24 01:22:28;;;;;;;12.00;8.85;;;15.60;99.90;;;;;;5069907;28;20041;-83
2023/06/24 01:25:17;;;;;;;10.88;8.77;;;15.60;99.90;;;;;;5069817;28;20056;-83
2023/06/24 01:28:13;;;;;;;11.60;8.68;;;15.50;99.90;;;;;;5053019;28;20394;-82
2023/06/24 01:31:26;;;;;;;10.82;9.23;;;15.50;99.90;;;;;;5052004;28;20045;-83
2023/06/24 01:34:19;;;;;;;11.25;8.73;;;15.40;99.90;;;;;;5071540;28;20561;-83
2023/06/24 01:36:50;;;;;;;13.50;9.27;;;15.40;99.90;;;;;;5053660;28;20075;-83
2023/06/24 01:39:18;;;;;;;12.02;9.32;;;15.30;99.90;;;;;;5053163;28;20123;-83
2023/06/24 01:41:50;;;;;;;13.00;9.02;;;15.20;99.90;;;;;;5052924;28;20048;-83
2023/06/24 01:44:16;;;;;;;;;;;15.20;99.90;;;;;;5053477;28;20127;-83
2023/06/24 01:46:46;;;;;;;13.75;8.77;;;15.20;99.90;;;;;;5070288;28;19961;-83
2023/06/24 01:49:14;;;;;;;16.42;9.68;;;15.20;99.90;;;;;;5069662;28;20501;-83
2023/06/24 01:51:42;;;;;;;12.20;8.65;;;15.20;99.90;;;;;;5052834;28;20086;-83
2023/06/24 01:54:18;;;;;;;11.30;9.45;;;15.20;99.90;;;;;;5052525;28;20490;-83
2023/06/24 01:56:47;;;;;;;14.25;9.80;;;15.20;99.90;;;;;;5053045;28;20040;-83
2023/06/24 01:59:16;;;;;;;13.80;9.52;;;15.20;99.90;;;;;;5052980;28;20040;-83
2023/06/24 02:01:43;;;;;;;13.38;9.13;;;15.10;99.90;;;;;;5069757;28;20144;-83
2023/06/24 02:04:10;;;;;;;11.82;8.55;;;15.20;99.90;;;;;;5053655;28;20079;-83
2023/06/24 02:06:37;;;;;;;10.80;9.10;;;15.10;99.90;;;;;;5036013;28;20044;-82
2023/06/24 02:09:05;;;;;;;11.35;8.50;;;15.10;99.90;;;;;;5052156;28;20051;-82
2023/06/24 02:11:33;;;;;;;11.35;9.07;;;15.10;99.90;;;;;;5068959;28;20047;-83
2023/06/24 02:14:01;;;;;;;13.65;9.77;;;15.00;99.90;;;;;;5052574;28;20044;-83
2023/06/24 02:16:28;;;;;;;14.07;8.95;;;15.00;99.90;;;;;;5070522;28;20088;-83
2023/06/24 02:18:55;;;;;;;12.02;8.15;;;14.90;99.90;;;;;;5069181;28;20058;-83
2023/06/24 02:21:23;;;;;;;11.02;9.20;;;15.00;99.90;;;;;;5052512;28;20351;-83
2023/06/24 02:23:49;;;;;;;12.48;8.80;;;14.90;99.90;;;;;;5068989;28;20048;-83
2023/06/24 02:26:16;;;;;;;14.55;8.93;;;14.90;99.90;;;;;;5052394;28;20036;-83
2023/06/24 02:28:44;;;;;;;13.63;9.65;;;14.80;99.90;;;;;;5052734;28;20583;-83
2023/06/24 02:31:12;;;;;;;14.88;9.10;;;14.80;99.90;;;;;;5073396;28;20097;-83
2023/06/24 02:33:37;;;;;;;13.60;8.98;;;14.80;99.90;;;;;;5073421;28;20036;-82
2023/06/24 02:36:03;;;;;;;10.27;8.63;;;14.80;99.90;;;;;;5040112;28;20174;-83
2023/06/24 02:38:29;;;;;;;15.27;9.40;;;14.70;99.90;;;;;;5039785;28;20410;-83
2023/06/24 02:40:56;;;;;;;14.75;9.90;;;14.80;99.90;;;;;;5040122;28;20048;-83
2023/06/24 02:43:22;;;;;;;12.27;9.45;;;14.70;99.90;;;;;;5055948;28;20133;-83
2023/06/24 02:45:48;;;;;;;10.15;8.98;;;14.80;99.90;;;;;;5039479;28;20086;-83
2023/06/24 02:48:15;;;;;;;12.55;8.82;;;14.80;99.90;;;;;;5056118;28;20923;-83
2023/06/24 02:50:44;;;;;;;11.18;9.20;;;14.80;99.90;;;;;;5039454;28;20037;-83
2023/06/24 02:53:11;;;;;;;14.80;10.00;;;14.80;99.90;;;;;;5056182;28;20505;-82
2023/06/24 02:55:40;;;;;;;13.20;8.90;;;14.80;99.90;;;;;;5073158;28;20054;-83
2023/06/24 02:58:07;;;;;;;10.85;9.50;;;14.90;99.90;;;;;;5055853;28;20079;-83
2023/06/24 03:00:36;;;;;;;11.93;9.32;;;14.90;99.90;;;;;;5039538;28;20048;-83
2023/06/24 03:03:04;;;;;;;11.38;8.65;;;14.90;99.90;;;;;;5055946;28;20032;-83
2023/06/24 03:05:32;;;;;;;11.93;8.80;;;14.90;99.90;;;;;;5055776;28;20069;-83
2023/06/24 03:07:58;;;;;;;13.65;9.60;;;14.90;99.90;;;;;;5055644;28;20048;-83
2023/06/24 03:10:27;;;;;;;13.27;9.73;;;14.90;99.90;;;;;;5072574;28;20032;-83
2023/06/24 03:12:53;;;;;;;12.60;10.07;;;14.90;99.90;;;;;;5039230;28;20043;-84
2023/06/24 03:15:19;;;;;;;11.55;9.13;;;14.90;99.90;;;;;;5055705;28;20446;-83
2023/06/24 03:17:45;;;;;;;11.07;8.85;;;14.90;99.90;;;;;;5055560;28;20087;-83
2023/06/24 03:20:11;;;;;;;12.32;9.70;;;14.90;99.90;;;;;;5072269;28;20076;-83
2023/06/24 03:22:37;;;;;;;12.63;9.43;;;14.90;99.90;;;;;;5038825;28;20071;-83
2023/06/24 03:25:03;;;;;;;13.15;9.68;;;14.90;99.90;;;;;;5038740;28;20055;-84
2023/06/24 03:27:31;;;;;;;14.57;9.60;;;14.90;99.90;;;;;;5071883;28;20044;-83
2023/06/24 03:29:56;;;;;;;10.98;9.05;;;14.90;99.90;;;;;;5055764;28;20041;-83
2023/06/24 03:32:22;;;;;;;14.05;9.25;;;14.90;99.90;;;;;;5055161;28;20041;-84
2023/06/24 03:34:48;;;;;;;11.05;8.43;;;14.90;99.90;;;;;;5071755;28;20028;-83
2023/06/24 03:37:13;;;;;;;11.52;8.77;;;14.90;99.90;;;;;;5038071;28;20086;-83
2023/06/24 03:39:39;;;;;;;12.75;9.60;;;14.90;99.90;;;;;;5038577;28;20032;-83
2023/06/24 03:42:05;;;;;;;10.70;9.57;;;14.90;99.90;;;;;;5053704;28;20131;-83
2023/06/24 03:44:30;;;;;;;13.18;9.07;;;14.90;99.90;;;;;;5055048;28;20047;-83
2023/06/24 03:46:56;;;;;;;11.25;8.73;;;14.90;99.90;;;;;;5054763;28;20127;-84
2023/06/24 03:49:22;;;;;;;12.00;8.38;;;14.90;99.90;;;;;;5071383;28;20044;-84
2023/06/24 03:51:47;;;;;;;12.50;8.73;;;14.90;99.90;;;;;;5038242;28;20059;-84
2023/06/24 03:54:13;;;;;;;12.60;8.70;;;14.90;99.90;;;;;;5038111;28;20040;-84
2023/06/24 03:56:39;;;;;;;15.23;9.02;;;15.00;99.90;;;;;;5054990;28;20044;-83
2023/06/24 03:59:05;;;;;;;10.88;9.00;;;15.00;99.90;;;;;;5038523;28;20072;-84
2023/06/24 04:01:31;;;;;;;12.10;8.38;;;15.00;99.90;;;;;;5055284;28;20064;-83
2023/06/24 04:03:57;;;;;;;12.55;8.98;;;15.00;99.90;;;;;;5038585;28;20037;-83
2023/06/24 04:06:23;;;;;;;9.95;7.80;;;15.00;99.90;;;;;;5054715;28;20044;-83
2023/06/24 04:08:51;;;;;;;15.20;8.95;;;15.00;99.90;;;;;;5037953;28;20052;-83
2023/06/24 04:11:18;;;;;;;12.93;8.68;;;15.10;99.90;;;;;;5038301;28;20036;-85
2023/06/24 04:13:45;;;;;;;9.82;8.50;;;15.10;99.90;;;;;;5071348;28;20395;-83
2023/06/24 04:16:11;;;;;;;11.05;9.48;;;15.10;99.90;;;;;;5054446;28;20044;-83
2023/06/24 04:18:39;;;;;;;13.00;8.25;;;15.20;99.90;;;;;;5038150;28;20094;-83
2023/06/24 04:21:06;;;;;;;14.68;8.38;;;15.20;99.90;;;;;;5038215;28;20047;-84
2023/06/24 04:23:32;;;;;;;12.65;8.75;;;15.20;99.90;;;;;;5038189;28;20070;-83
2023/06/24 04:25:58;;;;;;;13.65;8.95;;;15.20;99.90;;;;;;5071340;28;20444;-83
2023/06/24 04:28:24;;;;;;;12.20;9.95;;;15.30;99.90;;;;;;5070851;28;20684;-83
2023/06/24 04:30:50;;;;;;;15.02;9.55;;;15.30;99.90;;;;;;5037648;28;20045;-83
2023/06/24 04:33:15;;;;;;;10.77;8.70;;;15.30;99.90;;;;;;5070774;28;20079;-83
2023/06/24 04:35:41;;;;;;;10.23;8.60;;;15.40;99.90;;;;;;5054565;28;20040;-83
2023/06/24 04:38:07;;;;;;;12.38;8.80;;;15.40;99.90;;;;;;5054419;28;20051;-84
2023/06/24 04:40:32;;;;;;;12.82;8.60;;;15.40;99.90;;;;;;5037548;28;20536;-83
2023/06/24 04:42:58;;;;;;;12.52;9.13;;;15.50;99.90;;;;;;5054035;28;20055;-83
2023/06/24 04:45:24;;;;;;;13.85;10.00;;;15.50;99.90;;;;;;5070707;28;20409;-83
2023/06/24 04:47:51;;;;;;;10.57;9.07;;;15.60;99.90;;;;;;5053880;28;21059;-83
2023/06/24 04:50:16;;;;;;;13.02;9.07;;;15.60;99.90;;;;;;5037514;28;20040;-83
2023/06/24 04:52:42;;;;;;;13.50;8.93;;;15.70;99.90;;;;;;5053663;28;20032;-83
2023/06/24 04:55:08;;;;;;;14.63;9.13;;;15.70;99.90;;;;;;5037330;28;20428;-83
2023/06/24 04:57:34;;;;;;;13.07;8.95;;;15.80;99.90;;;;;;5053788;28;20048;-83
2023/06/24 05:00:00;;;;;;;11.35;8.80;;;15.90;99.90;;;;;;5037117;28;20102;-83
2023/06/24 05:02:26;;;;;;;15.20;8.40;;;15.90;99.90;;;;;;5053993;28;20044;-83
2023/06/24 05:04:52;;;;;;;13.70;9.18;;;16.00;99.90;;;;;;5037351;28;20044;-83
2023/06/24 05:07:18;;;;;;;11.18;9.38;;;16.00;99.90;;;;;;5053281;28;20057;-83
2023/06/24 05:09:47;;;;;;;13.75;10.00;;;16.10;99.90;;;;;;5053393;28;20490;-83
2023/06/24 05:12:12;;;;;;;12.88;9.63;;;16.20;99.90;;;;;;5053531;28;20386;-83
2023/06/24 05:14:38;;;;;;;12.43;9.68;;;16.20;99.90;;;;;;5036786;28;20052;-82
2023/06/24 05:17:04;;;;;;;14.25;9.68;;;16.30;99.90;;;;;;5053404;28;20040;-82
2023/06/24 05:19:29;;;;;;;14.02;10.50;;;16.40;99.90;;;;;;5036691;28;20067;-83
2023/06/24 05:21:55;;;;;;;13.70;10.23;;;16.40;99.90;;;;;;5036807;28;20072;-83
2023/06/24 05:24:21;;;;;;;12.23;9.45;;;16.60;99.90;;;;;;5053282;28;20040;-82
2023/06/24 05:26:49;;;;;;;12.05;9.55;;;16.70;99.90;;;;;;5036735;28;20036;-83
2023/06/24 05:29:15;;;;;;;14.77;10.13;;;16.80;99.90;;;;;;5053198;28;20512;-83
2023/06/24 05:31:41;;;;;;;13.63;10.23;;;16.90;99.90;;;;;;5053185;28;20033;-83
2023/06/24 05:34:07;;;;;;;16.35;10.40;;;16.90;99.90;;;;;;5052965;28;20150;-83
2023/06/24 05:36:33;;;;;;;17.40;11.70;;;17.00;99.90;;;;;;5036791;28;20040;-83
2023/06/24 05:38:59;;;;;;;12.63;11.00;;;17.10;99.90;;;;;;5036235;28;20085;-82
2023/06/24 05:41:25;;;;;;;15.18;10.43;;;17.10;99.90;;;;;;5053130;28;20032;-82
2023/06/24 05:44:04;;;;;;;13.90;11.50;;;17.20;99.90;;;;;;5069630;28;20045;-82
2023/06/24 05:46:31;;;;;;;16.85;11.10;;;17.30;99.90;;;;;;5036328;28;20114;-82
2023/06/24 05:48:56;;;;;;;14.27;11.10;;;17.30;99.90;;;;;;5036063;28;20047;-83
2023/06/24 05:51:22;;;;;;;13.10;10.82;;;17.40;99.90;;;;;;5053127;28;20049;-82
2023/06/24 05:53:48;;;;;;;17.80;10.73;;;17.50;99.90;;;;;;5036443;28;20549;-82
2023/06/24 05:56:13;;;;;;;17.67;11.48;;;17.60;99.90;;;;;;5052793;28;20182;-82
2023/06/24 05:58:40;;;;;;;13.63;10.20;;;17.70;99.90;;;;;;5036287;28;20035;-83
2023/06/24 06:01:06;;;;;;;13.65;9.88;;;17.80;99.90;;;;;;5036309;28;20145;-82
2023/06/24 06:03:31;;;;;;;12.68;9.38;;;17.90;99.90;;;;;;5068591;28;20072;-83
2023/06/24 06:05:57;;;;;;;15.15;10.50;;;18.00;99.90;;;;;;5036213;28;20043;-82
2023/06/24 06:08:23;;;;;;;14.93;10.90;;;18.10;99.90;;;;;;5052503;28;20048;-82
2023/06/24 06:10:48;;;;;;;11.93;9.50;;;18.20;99.90;;;;;;5036217;28;20037;-82
2023/06/24 06:13:14;;;;;;;12.73;9.63;;;18.30;99.90;;;;;;5052570;28;20398;-82
2023/06/24 06:15:40;;;;;;;13.68;9.73;;;18.30;99.90;;;;;;5069522;28;20441;-83
2023/06/24 06:18:05;;;;;;;11.32;9.18;;;18.50;99.90;;;;;;5035710;28;20045;-82
2023/06/24 06:20:31;;;;;;;23.40;9.25;;;18.50;99.90;;;;;;5052577;28;20040;-82
2023/06/24 06:22:57;;;;;;;9.68;8.25;;;18.60;99.90;;;;;;5052392;28;20044;-83
2023/06/24 06:25:23;;;;;;;11.57;7.88;;;18.80;99.90;;;;;;5036377;28;20047;-83
2023/06/24 06:27:49;;;;;;;10.90;8.80;;;18.80;99.90;;;;;;5035812;28;20040;-83
2023/06/24 06:30:15;;;;;;;9.43;8.13;;;19.00;99.90;;;;;;5052532;28;20036;-82
2023/06/24 06:32:40;;;;;;;11.50;8.38;;;19.10;99.90;;;;;;5068956;28;20089;-84
2023/06/24 06:35:07;;;;;;;10.73;8.55;;;19.20;99.90;;;;;;5052655;28;20036;-82
2023/06/24 06:37:33;;;;;;;10.52;7.57;;;19.30;99.90;;;;;;5035778;28;20051;-83
2023/06/24 06:39:59;;;;;;;11.35;8.15;;;19.40;99.90;;;;;;5035505;28;20036;-82
2023/06/24 06:42:25;;;;;;;11.18;8.60;;;19.50;99.90;;;;;;5068840;28;20110;-83
2023/06/24 06:44:50;;;;;;;11.25;7.68;;;19.60;99.90;;;;;;5035347;28;20055;-83
2023/06/24 06:47:16;;;;;;;10.73;8.20;;;19.60;99.90;;;;;;5052247;28;20080;-83
2023/06/24 06:49:42;;;;;;;9.15;7.55;;;19.80;99.90;;;;;;5052200;28;20048;-83
2023/06/24 06:52:08;;;;;;;8.90;7.50;;;19.90;99.90;;;;;;5052418;28;20044;-83
2023/06/24 06:54:33;;;;;;;19.17;8.07;;;20.00;99.90;;;;;;5058107;28;20092;-84
2023/06/24 06:57:06;;;;;;;8.82;7.43;;;20.10;99.90;;;;;;5061339;28;20051;-83
2023/06/24 06:59:32;;;;;;;9.50;6.72;;;20.20;99.90;;;;;;5052224;28;20045;-83
2023/06/24 07:01:58;;;;;;;10.80;7.13;;;20.40;99.90;;;;;;5052474;28;20044;-83
2023/06/24 07:04:24;;;;;;;10.25;8.02;;;20.50;99.90;;;;;;5069381;28;20041;-86
2023/06/24 07:06:49;;;;;;;9.50;7.55;;;20.60;99.90;;;;;;5035700;28;20041;-84
2023/06/24 07:09:15;;;;;;;13.90;8.07;;;20.70;99.90;;;;;;5054195;28;20048;-84
2023/06/24 07:11:42;;;;;;;11.45;7.60;;;20.80;99.90;;;;;;5052470;28;20044;-84
2023/06/24 07:14:08;;;;;;;9.10;7.85;;;21.00;99.90;;;;;;5035816;28;20070;-86
2023/06/24 07:16:34;;;;;;;8.55;7.18;;;21.10;99.90;;;;;;5038913;28;20036;-85
2023/06/24 07:19:00;;;;;;;11.07;7.45;;;21.20;99.90;;;;;;5056014;28;20045;-85
2023/06/24 07:21:26;;;;;;;10.52;7.75;;;21.30;99.90;;;;;;5039218;28;20102;-85
2023/06/24 07:23:51;;;;;;;10.07;6.90;;;21.40;99.90;;;;;;5055481;28;20079;-84
2023/06/24 07:26:17;;;;;;;10.88;7.60;;;21.60;99.90;;;;;;5039010;28;20044;-84
2023/06/24 07:28:43;;;;;;;7.63;6.82;;;21.80;99.90;;;;;;5038872;28;20041;-85
2023/06/24 07:31:08;;;;;;;9.43;7.28;;;21.90;99.90;;;;;;5055422;28;20076;-85
2023/06/24 07:33:34;;;;;;;10.30;6.95;;;21.90;99.90;;;;;;5055618;28;20040;-85
2023/06/24 07:36:00;;;;;;;9.15;7.32;;;22.10;99.90;;;;;;5038993;28;20075;-84
2023/06/24 07:38:28;;;;;;;9.80;7.38;;;22.20;99.90;;;;;;5055638;28;20461;-84
2023/06/24 07:40:53;;;;;;;9.73;7.75;;;22.40;99.90;;;;;;5072122;28;20063;-84
2023/06/24 07:43:19;;;;;;;10.80;8.00;;;22.60;99.90;;;;;;5055217;28;20477;-84
2023/06/24 07:45:45;;;;;;;13.95;7.90;;;22.70;99.90;;;;;;5038425;28;20401;-83
2023/06/24 07:48:10;;;;;;;13.80;7.95;;;22.80;99.90;;;;;;5038594;28;20151;-83
2023/06/24 07:50:37;;;;;;;10.18;8.52;;;22.90;99.90;;;;;;5055220;28;20102;-83
2023/06/24 07:53:03;;;;;;;13.40;8.32;;;23.00;99.90;;;;;;5071724;28;20052;-85
2023/06/24 07:55:29;;;;;;;10.70;8.27;;;23.10;99.90;;;;;;5071687;28;20047;-83
2023/06/24 07:57:54;;;;;;;9.63;7.35;;;23.20;99.90;;;;;;5071605;28;20040;-84
2023/06/24 08:00:20;;;;;;;9.50;8.15;;;23.30;99.90;;;;;;5038506;28;20044;-84
2023/06/24 08:02:46;;;;;;;10.35;7.75;;;23.40;99.90;;;;;;5071556;28;20044;-83
2023/06/24 08:05:11;;;;;;;8.75;7.78;;;23.50;99.90;;;;;;5054966;28;20352;-84
2023/06/24 08:07:38;;;;;;;14.32;8.68;;;23.60;99.90;;;;;;5037939;28;20498;-84
2023/06/24 08:10:04;;;;;;;10.75;7.88;;;23.70;99.90;;;;;;5054605;28;20040;-84
2023/06/24 08:12:31;;;;;;;10.23;8.27;;;23.70;99.90;;;;;;5054363;28;20032;-84
2023/06/24 08:14:57;;;;;;;10.93;8.40;;;23.80;99.90;;;;;;5037992;28;20044;-84
2023/06/24 08:17:22;;;;;;;10.13;7.50;;;23.90;99.90;;;;;;5071218;28;20056;-84
2023/06/24 08:19:49;;;;;;;11.60;9.23;;;24.00;99.90;;;;;;5037679;28;20082;-85
2023/06/24 08:22:14;;;;;;;11.20;9.15;;;24.10;99.90;;;;;;5071266;28;20047;-84
2023/06/24 08:24:40;;;;;;;11.60;8.80;;;24.20;99.90;;;;;;5071135;28;20049;-83
2023/06/24 08:27:06;;;;;;;12.73;8.27;;;24.30;99.90;;;;;;5070052;28;20036;-83
2023/06/24 08:29:31;;;;;;;8.95;8.05;;;24.40;99.90;;;;;;5071291;28;20051;-84
2023/06/24 08:31:57;;;;;;;12.25;8.63;;;24.60;99.90;;;;;;5054372;28;20613;-84
2023/06/24 08:34:23;;;;;;;11.43;8.40;;;24.70;99.90;;;;;;5054242;28;20032;-84
2023/06/24 08:36:48;;;;;;;11.98;8.38;;;24.80;99.90;;;;;;5054165;28;20037;-84
2023/06/24 08:39:14;;;;;;;12.32;8.68;;;24.90;99.90;;;;;;5037854;28;20062;-83
2023/06/24 08:41:40;;;;;;;11.85;8.35;;;25.00;99.90;;;;;;5037254;28;20508;-83
2023/06/24 08:44:05;;;;;;;10.43;8.50;;;25.10;99.90;;;;;;5037526;28;20036;-84
2023/06/24 08:46:33;;;;;;;13.88;9.57;;;25.20;99.90;;;;;;5054332;28;20048;-83
2023/06/24 08:49:29;;;;;;;11.35;8.85;;;25.20;99.90;;;;;;5037709;28;20044;-83
2023/06/24 08:52:16;;;;;;;10.63;8.73;;;25.20;99.90;;;;;;5037915;28;20044;-83
2023/06/24 08:54:46;;;;;;;13.23;8.15;;;25.40;98.50;;;;;;5070640;28;20522;-83
2023/06/24 08:57:14;;;;;;;12.48;10.27;;;25.40;99.30;;;;;;5054220;28;20044;-83
2023/06/24 08:59:41;;;;;;;11.90;8.80;;;25.50;99.20;;;;;;5071158;28;20091;-83
2023/06/24 09:02:07;;;;;;;10.98;8.80;;;25.40;98.40;;;;;;5054150;28;20485;-83
2023/06/24 09:04:34;;;;;;;12.88;10.15;;;25.40;98.40;;;;;;5037938;28;20044;-84
2023/06/24 09:07:00;;;;;;;11.48;8.45;;;25.30;98.10;;;;;;5054949;28;20040;-84
2023/06/24 09:09:27;;;;;;;13.50;9.00;;;25.20;98.10;;;;;;5038085;28;20060;-84
2023/06/24 09:11:59;;;;;;;9.38;8.35;;;25.20;98.30;;;;;;5039956;28;20734;-84
2023/06/24 09:14:26;;;;;;;11.00;8.95;;;25.20;98.60;;;;;;5053951;28;20618;-84
2023/06/24 09:16:58;;;;;;;11.18;8.52;;;25.10;98.30;;;;;;5053757;28;20036;-83
2023/06/24 09:19:24;;;;;;;9.70;8.35;;;25.00;98.00;;;;;;5053717;28;20028;-84
2023/06/24 09:21:54;;;;;;;8.50;6.38;;;25.10;98.30;;;;;;5053782;28;20047;-84
2023/06/24 09:24:20;;;;;;;10.25;8.00;;;25.20;98.00;;;;;;5037045;28;20037;-83
2023/06/24 09:26:46;;;;;;;12.85;8.95;;;25.30;98.00;;;;;;5036578;28;20055;-84
2023/06/24 09:29:14;;;;;;;9.02;7.65;;;25.40;98.00;;;;;;5053612;28;20048;-83
2023/06/24 09:31:52;;;;;;;9.88;7.80;;;25.50;97.70;;;;;;5053283;28;20033;-84
2023/06/24 09:34:19;;;;;;;7.15;5.53;;;25.60;97.50;;;;;;5069983;28;20037;-84
2023/06/24 09:36:52;;;;;;;8.82;6.15;;;25.80;96.70;;;;;;5053280;28;20113;-84
2023/06/24 09:39:17;;;;;;;7.50;6.40;;;26.00;96.70;;;;;;5053224;28;20039;-84
2023/06/24 09:41:43;;;;;;;9.55;7.20;;;26.10;96.80;;;;;;5053312;28;20119;-84
2023/06/24 09:44:11;;;;;;;14.73;7.13;;;26.10;96.50;;;;;;5053819;28;20040;-85
2023/06/24 09:46:37;;;;;;;9.20;7.40;;;26.20;96.40;;;;;;5053305;28;20390;-85
2023/06/24 09:49:06;;;;;;;10.52;6.93;;;26.30;96.10;;;;;;5052877;28;20622;-84
2023/06/24 09:51:39;;;;;;;7.80;5.63;;;26.30;95.60;;;;;;5069529;28;20045;-84
2023/06/24 09:54:09;;;;;;;12.85;6.82;;;26.40;93.90;;;;;;5036640;28;20389;-84
2023/06/24 09:56:42;;;;;;;9.35;6.88;;;26.50;94.40;;;;;;5036460;28;20101;-83
2023/06/24 09:59:08;;;;;;;7.07;6.28;;;26.50;93.80;;;;;;5057301;28;20036;-84
2023/06/24 10:01:38;;;;;;;8.40;6.28;;;26.60;93.80;;;;;;5037539;28;20045;-84
2023/06/24 10:04:07;;;;;;;8.48;6.13;;;26.70;93.80;;;;;;5054629;28;20382;-84
2023/06/24 10:06:33;;;;;;;7.47;6.32;;;26.70;93.60;;;;;;5070518;28;20131;-83
2023/06/24 10:09:00;;;;;;;9.70;6.70;;;26.80;93.50;;;;;;5070252;28;20045;-84
2023/06/24 10:11:26;;;;;;;38.10;10.00;;;26.90;93.20;;;;;;5037378;28;20037;-84
2023/06/24 10:13:53;;;;;;;12.23;6.20;;;27.10;93.40;;;;;;5053102;28;20046;-84
2023/06/24 10:16:19;;;;;;;6.65;5.07;;;27.20;93.50;;;;;;5070351;28;20032;-84
2023/06/24 10:18:45;;;;;;;7.03;5.10;;;27.30;93.20;;;;;;5053389;28;20037;-84
2023/06/24 10:21:11;;;;;;;8.45;4.70;;;27.50;92.90;;;;;;5053290;28;20745;-84
2023/06/24 10:23:42;;;;;;;9.15;4.90;;;27.70;92.90;;;;;;5036861;28;20041;-85
2023/06/24 10:26:22;;;;;;;5.80;4.93;;;27.80;91.30;;;;;;5053926;28;20387;-84
2023/06/24 10:29:06;;;;;;;7.35;4.82;;;27.80;91.50;;;;;;5070085;28;20064;-84
2023/06/24 10:31:55;;;;;;;10.80;5.85;;;27.90;90.60;;;;;;5053801;28;20104;-84
2023/06/24 10:34:37;;;;;;;7.28;5.53;;;28.00;91.20;;;;;;5050610;28;20132;-84
2023/06/24 10:37:04;;;;;;;7.00;5.40;;;28.00;91.00;;;;;;5070174;28;20392;-85
2023/06/24 10:39:36;;;;;;;6.10;4.88;;;28.10;91.20;;;;;;5037541;28;20041;-84
2023/06/24 10:42:26;;;;;;;6.88;4.63;;;28.20;90.50;;;;;;5069906;28;20037;-86
2023/06/24 10:44:54;;;;;;;7.38;5.30;;;28.20;89.10;;;;;;5070361;28;20037;-84
2023/06/24 10:47:23;;;;;;;7.30;5.53;;;28.20;90.00;;;;;;5053293;28;20043;-84
2023/06/24 10:49:49;;;;;;;7.80;4.80;;;28.30;90.00;;;;;;5053304;28;20119;-85
2023/06/24 10:52:21;;;;;;;4.93;4.00;;;28.40;90.00;;;;;;5057571;28;20037;-84
2023/06/24 10:54:47;;;;;;;3.97;3.58;;;28.50;87.80;;;;;;5073808;28;20048;-84
2023/06/24 10:57:13;;;;;;;4.60;3.90;;;28.50;87.20;;;;;;5040685;28;20414;-84
2023/06/24 10:59:46;;;;;;;8.27;4.20;;;28.60;86.70;;;;;;5057290;28;20070;-85
2023/06/24 11:02:16;;;;;;;6.30;4.35;;;28.60;85.50;;;;;;5057748;28;20196;-84
2023/06/24 11:04:47;;;;;;;5.45;4.60;;;28.60;85.80;;;;;;5056414;28;20047;-85
2023/06/24 11:07:13;;;;;;;6.25;4.45;;;28.80;85.50;;;;;;5056408;28;20040;-84
2023/06/24 11:09:42;;;;;;;5.85;4.40;;;28.80;86.00;;;;;;5073441;28;20048;-86
2023/06/24 11:12:11;;;;;;;18.58;5.40;;;28.80;85.00;;;;;;5040348;28;20071;-86
2023/06/24 11:14:38;;;;;;;5.18;4.25;;;28.80;83.90;;;;;;5040465;28;20079;-84
2023/06/24 11:17:04;;;;;;;5.05;4.20;;;28.80;83.80;;;;;;5056591;28;20505;-84
2023/06/24 11:19:31;;;;;;;7.13;4.28;;;28.80;85.10;;;;;;5057359;28;20033;-84
2023/06/24 11:22:01;;;;;;;5.65;4.28;;;29.00;85.30;;;;;;5040594;28;20040;-84
2023/06/24 11:24:30;;;;;;;6.18;4.38;;;29.00;84.30;;;;;;5056446;28;20418;-84
2023/06/24 11:26:56;;;;;;;4.22;3.63;;;29.10;84.20;;;;;;5056338;28;20033;-85
2023/06/24 11:29:23;;;;;;;5.80;4.13;;;29.30;84.50;;;;;;5056437;28;20508;-84
2023/06/24 11:31:50;;;;;;;5.82;4.32;;;29.30;83.90;;;;;;5056491;28;20119;-87
2023/06/24 11:34:16;;;;;;;4.75;3.97;;;29.30;82.40;;;;;;5056881;28;20068;-87
2023/06/24 11:36:42;;;;;;;5.10;3.90;;;29.30;81.70;;;;;;5056815;28;20395;-87
2023/06/24 11:39:07;;;;;;;4.72;4.00;;;29.20;81.80;;;;;;5073804;28;20047;-85
2023/06/24 11:41:33;;;;;;;7.32;3.92;;;29.10;81.90;;;;;;5039432;28;20663;-85
2023/06/24 11:43:59;;;;;;;5.05;4.25;;;29.20;82.20;;;;;;5039863;28;20091;-85
2023/06/24 11:46:33;;;;;;;5.82;4.10;;;29.00;79.70;;;;;;5073528;28;20045;-85
2023/06/24 11:49:09;;;;;;;6.65;4.15;;;29.10;81.40;;;;;;5040431;28;20510;-85
2023/06/24 11:51:35;;;;;;;5.18;4.57;;;29.00;81.10;;;;;;5039637;28;20159;-85
2023/06/24 11:54:03;;;;;;;4.93;4.00;;;28.50;80.50;;;;;;5040192;28;20052;-85
2023/06/24 11:56:39;;;;;;;7.07;4.20;;;28.30;80.60;;;;;;5072817;28;20041;-86
2023/06/24 11:59:22;;;;;;;5.82;4.80;;;28.10;80.60;;;;;;5055577;28;20044;-86
2023/06/24 12:01:56;;;;;;;5.55;4.25;;;28.10;81.70;;;;;;5070920;28;20048;-86
2023/06/24 12:04:28;;;;;;;5.55;3.80;;;28.00;81.50;;;;;;5071686;28;20040;-86
2023/06/24 12:06:54;;;;;;;;;;;28.00;82.70;;;;;;5055326;28;20107;-85
2023/06/24 12:09:20;;;;;;;5.32;3.83;;;28.10;82.20;;;;;;5071839;28;19990;-85
2023/06/24 12:11:46;;;;;;;5.07;3.55;;;28.30;82.40;;;;;;5039986;28;20051;-88
2023/06/24 12:14:11;;;;;;;4.75;3.78;;;28.60;82.60;;;;;;5071972;28;20051;-86
2023/06/24 12:16:38;;;;;;;5.22;3.53;;;28.70;81.60;;;;;;5057078;28;20041;-86
2023/06/24 12:19:04;;;;;;;4.57;3.50;;;28.70;80.50;;;;;;5077340;28;20139;-86
2023/06/24 12:21:30;;;;;;;6.47;3.88;;;28.80;80.00;;;;;;5055837;28;20055;-86
2023/06/24 12:23:55;;;;;;;6.25;3.85;;;29.00;81.10;;;;;;5071724;28;20044;-87
2023/06/24 12:26:21;;;;;;;5.32;3.95;;;29.20;80.50;;;;;;5038041;28;20105;-87
2023/06/24 12:28:47;;;;;;;4.05;3.63;;;29.20;80.60;;;;;;5054652;28;20102;-86
2023/06/24 12:31:12;;;;;;;5.57;3.80;;;29.30;79.50;;;;;;5037750;28;20029;-87
2023/06/24 12:33:38;;;;;;;4.53;3.97;;;29.30;78.70;;;;;;5054506;28;20040;-86
2023/06/24 12:36:04;;;;;;;5.55;3.53;;;29.10;77.70;;;;;;5054381;28;20037;-86
2023/06/24 12:38:30;;;;;;;5.95;3.97;;;29.10;79.40;;;;;;5054527;28;20036;-86
2023/06/24 12:40:57;;;;;;;4.68;3.65;;;29.00;78.60;;;;;;5054402;28;20377;-85
2023/06/24 12:43:23;;;;;;;5.07;3.50;;;29.00;78.10;;;;;;5054376;28;20044;-85